createdAt,value
2023-04-15T00:00:32.863Z,88
2023-04-15T00:01:32.828Z,88
2023-04-15T00:02:33.071Z,88
2023-04-15T00:03:33.160Z,88
2023-04-15T00:04:32.959Z,88
2023-04-15T00:05:32.823Z,88
2023-04-15T00:06:32.865Z,88
2023-04-15T00:07:32.813Z,88
2023-04-15T00:08:32.843Z,88
2023-04-15T00:09:32.814Z,88
2023-04-15T00:10:32.846Z,88
2023-04-15T00:11:32.822Z,88
2023-04-15T00:12:32.839Z,88
2023-04-15T00:13:32.812Z,88
2023-04-15T00:14:32.840Z,88
2023-04-15T00:15:32.827Z,88
2023-04-15T00:16:32.835Z,88
2023-04-15T00:17:32.851Z,88
2023-04-15T00:18:32.868Z,88
2023-04-15T00:19:32.805Z,88
2023-04-15T00:20:32.802Z,88
2023-04-15T00:21:32.810Z,88
2023-04-15T00:22:32.827Z,88
2023-04-15T00:23:32.824Z,88
2023-04-15T00:24:32.833Z,88
2023-04-15T00:25:32.800Z,88
2023-04-15T00:26:32.845Z,88
2023-04-15T00:27:32.828Z,88
2023-04-15T00:28:32.810Z,88
2023-04-15T00:29:32.804Z,88
2023-04-15T00:30:32.854Z,88
2023-04-15T00:31:32.851Z,88
2023-04-15T00:32:32.826Z,88
2023-04-15T00:33:32.843Z,88
2023-04-15T00:34:32.815Z,88
2023-04-15T00:35:32.856Z,88
2023-04-15T00:36:32.786Z,88
2023-04-15T00:37:32.806Z,88
2023-04-15T00:38:32.847Z,88
2023-04-15T00:39:32.837Z,88
2023-04-15T00:40:32.819Z,88
2023-04-15T00:41:32.811Z,88
2023-04-15T00:42:32.840Z,88
2023-04-15T00:43:32.850Z,88
2023-04-15T00:44:32.824Z,88
2023-04-15T00:45:32.819Z,88
2023-04-15T00:46:32.801Z,88
2023-04-15T00:47:32.872Z,88
2023-04-15T00:48:32.806Z,88
2023-04-15T00:49:32.832Z,88
2023-04-15T00:50:32.835Z,88
2023-04-15T00:51:32.846Z,88
2023-04-15T00:52:32.805Z,88
2023-04-15T00:53:32.830Z,88
2023-04-15T00:54:32.825Z,88
2023-04-15T00:55:32.841Z,88
2023-04-15T00:56:32.805Z,88
2023-04-15T00:57:33.852Z,88
2023-04-15T00:58:32.812Z,88
2023-04-15T00:59:32.823Z,88
2023-04-15T01:00:32.871Z,88
2023-04-15T01:01:32.914Z,88
2023-04-15T01:02:33.096Z,88
2023-04-15T01:03:33.025Z,88
2023-04-15T01:04:32.871Z,88
2023-04-15T01:05:32.823Z,88
2023-04-15T01:06:32.820Z,88
2023-04-15T01:07:32.847Z,88
2023-04-15T01:08:32.818Z,88
2023-04-15T01:09:32.818Z,88
2023-04-15T01:10:32.811Z,88
2023-04-15T01:11:32.822Z,88
2023-04-15T01:12:32.785Z,88
2023-04-15T01:13:32.804Z,88
2023-04-15T01:14:32.800Z,88
2023-04-15T01:15:32.818Z,88
2023-04-15T01:16:32.970Z,88
2023-04-15T01:17:32.834Z,88
2023-04-15T01:18:32.829Z,88
2023-04-15T01:19:32.907Z,88
2023-04-15T01:20:32.807Z,88
2023-04-15T01:21:32.818Z,88
2023-04-15T01:22:32.814Z,88
2023-04-15T01:23:32.822Z,88
2023-04-15T01:24:32.837Z,88
2023-04-15T01:25:32.856Z,88
2023-04-15T01:26:32.870Z,88
2023-04-15T01:27:32.810Z,88
2023-04-15T01:28:32.853Z,88
2023-04-15T01:29:32.819Z,88
2023-04-15T01:30:32.847Z,87
2023-04-15T01:31:32.823Z,87
2023-04-15T01:32:32.829Z,87
2023-04-15T01:33:32.817Z,87
2023-04-15T01:34:35.539Z,87
2023-04-15T01:35:32.816Z,87
2023-04-15T01:36:32.813Z,87
2023-04-15T01:37:32.815Z,87
2023-04-15T01:38:32.823Z,87
2023-04-15T01:39:32.806Z,87
2023-04-15T01:40:33.019Z,87
2023-04-15T01:41:32.992Z,87
2023-04-15T01:42:32.923Z,87
2023-04-15T01:43:32.914Z,87
2023-04-15T01:44:32.966Z,87
2023-04-15T01:45:32.942Z,87
2023-04-15T01:46:32.977Z,87
2023-04-15T01:47:32.942Z,87
2023-04-15T01:48:32.986Z,87
2023-04-15T01:49:32.913Z,87
2023-04-15T01:50:32.946Z,87
2023-04-15T01:51:32.946Z,87
2023-04-15T01:52:32.965Z,87
2023-04-15T01:53:32.954Z,87
2023-04-15T01:54:32.986Z,87
2023-04-15T01:55:32.941Z,87
2023-04-15T01:56:32.912Z,87
2023-04-15T01:57:32.937Z,87
2023-04-15T01:58:32.838Z,87
2023-04-15T01:59:32.801Z,87
2023-04-15T02:00:32.868Z,87
2023-04-15T02:01:32.891Z,87
2023-04-15T02:02:32.927Z,87
2023-04-15T02:03:32.968Z,87
2023-04-15T02:04:32.841Z,87
2023-04-15T02:05:32.822Z,87
2023-04-15T02:06:32.873Z,87
2023-04-15T02:07:32.814Z,87
2023-04-15T02:08:32.798Z,87
2023-04-15T02:09:32.809Z,87
2023-04-15T02:10:32.820Z,87
2023-04-15T02:11:32.848Z,87
2023-04-15T02:12:32.839Z,87
2023-04-15T02:13:32.826Z,87
2023-04-15T02:14:32.813Z,87
2023-04-15T02:15:32.815Z,87
2023-04-15T02:16:32.862Z,87
2023-04-15T02:17:32.841Z,87
2023-04-15T02:18:32.815Z,87
2023-04-15T02:19:32.808Z,87
2023-04-15T02:20:32.828Z,87
2023-04-15T02:21:32.834Z,86
2023-04-15T02:22:32.830Z,87
2023-04-15T02:23:32.806Z,86
2023-04-15T02:24:32.749Z,86
2023-04-15T02:25:32.815Z,86
2023-04-15T02:26:32.829Z,86
2023-04-15T02:27:32.776Z,86
2023-04-15T02:28:32.811Z,86
2023-04-15T02:29:32.834Z,86
2023-04-15T02:30:32.805Z,86
2023-04-15T02:31:32.876Z,86
2023-04-15T02:32:32.848Z,86
2023-04-15T02:33:32.819Z,86
2023-04-15T02:34:32.823Z,86
2023-04-15T02:35:32.811Z,86
2023-04-15T02:36:32.811Z,86
2023-04-15T02:37:32.809Z,86
2023-04-15T02:38:32.825Z,86
2023-04-15T02:39:32.802Z,86
2023-04-15T02:40:32.850Z,86
2023-04-15T02:41:32.881Z,86
2023-04-15T02:42:32.824Z,86
2023-04-15T02:43:32.789Z,86
2023-04-15T02:44:32.825Z,86
2023-04-15T02:45:32.783Z,86
2023-04-15T02:46:32.799Z,86
2023-04-15T02:47:32.860Z,86
2023-04-15T02:48:32.891Z,86
2023-04-15T02:49:32.804Z,86
2023-04-15T02:50:32.798Z,86
2023-04-15T02:51:32.826Z,86
2023-04-15T02:52:32.822Z,86
2023-04-15T02:53:32.808Z,86
2023-04-15T02:54:32.785Z,86
2023-04-15T02:55:32.798Z,86
2023-04-15T02:56:32.808Z,86
2023-04-15T02:57:32.810Z,86
2023-04-15T02:58:32.803Z,86
2023-04-15T02:59:32.809Z,86
2023-04-15T03:00:32.870Z,86
2023-04-15T03:01:32.866Z,86
2023-04-15T03:02:32.963Z,86
2023-04-15T03:03:32.906Z,86
2023-04-15T03:04:32.812Z,86
2023-04-15T03:05:32.808Z,86
2023-04-15T03:06:32.793Z,86
2023-04-15T03:07:32.800Z,86
2023-04-15T03:08:32.839Z,85
2023-04-15T03:09:32.828Z,85
2023-04-15T03:10:32.818Z,85
2023-04-15T03:11:33.662Z,85
2023-04-15T03:12:32.958Z,85
2023-04-15T03:13:32.826Z,85
2023-04-15T03:14:32.801Z,86
2023-04-15T03:15:32.842Z,85
2023-04-15T03:16:32.853Z,85
2023-04-15T03:17:32.950Z,85
2023-04-15T03:18:32.774Z,85
2023-04-15T03:19:32.917Z,85
2023-04-15T03:20:32.865Z,85
2023-04-15T03:21:32.833Z,85
2023-04-15T03:22:32.975Z,85
2023-04-15T03:23:32.974Z,85
2023-04-15T03:24:32.790Z,85
2023-04-15T03:25:32.797Z,85
2023-04-15T03:26:32.934Z,85
2023-04-15T03:27:32.776Z,85
2023-04-15T03:28:32.838Z,85
2023-04-15T03:29:32.796Z,85
2023-04-15T03:30:32.799Z,85
2023-04-15T03:31:32.966Z,85
2023-04-15T03:32:32.827Z,85
2023-04-15T03:33:32.964Z,85
2023-04-15T03:34:32.928Z,85
2023-04-15T03:35:32.940Z,85
2023-04-15T03:36:32.982Z,85
2023-04-15T03:37:32.892Z,85
2023-04-15T03:38:32.971Z,85
2023-04-15T03:39:32.822Z,85
2023-04-15T03:40:32.928Z,85
2023-04-15T03:41:33.039Z,85
2023-04-15T03:42:32.900Z,85
2023-04-15T03:43:32.900Z,85
2023-04-15T03:44:32.877Z,85
2023-04-15T03:45:32.872Z,85
2023-04-15T03:46:32.933Z,85
2023-04-15T03:47:32.909Z,85
2023-04-15T03:48:32.853Z,85
2023-04-15T03:49:32.791Z,85
2023-04-15T03:50:32.922Z,85
2023-04-15T03:51:32.963Z,85
2023-04-15T03:52:32.812Z,85
2023-04-15T03:53:32.792Z,85
2023-04-15T03:54:32.793Z,85
2023-04-15T03:55:32.783Z,85
2023-04-15T03:56:32.805Z,85
2023-04-15T03:57:32.800Z,85
2023-04-15T03:58:32.805Z,85
2023-04-15T03:59:32.818Z,85
2023-04-15T04:00:32.819Z,85
2023-04-15T04:01:32.822Z,85
2023-04-15T04:02:32.952Z,85
2023-04-15T04:03:32.954Z,85
2023-04-15T04:04:32.937Z,85
2023-04-15T04:05:32.805Z,85
2023-04-15T04:06:32.793Z,85
2023-04-15T04:07:32.774Z,85
2023-04-15T04:08:32.832Z,85
2023-04-15T04:09:32.813Z,85
2023-04-15T04:10:32.818Z,85
2023-04-15T04:11:32.798Z,85
2023-04-15T04:12:32.798Z,85
2023-04-15T04:13:32.867Z,85
2023-04-15T04:14:32.773Z,85
2023-04-15T04:15:32.986Z,85
2023-04-15T04:16:32.852Z,86
2023-04-15T04:17:32.821Z,86
2023-04-15T04:18:32.831Z,86
2023-04-15T04:19:32.762Z,86
2023-04-15T04:20:32.816Z,86
2023-04-15T04:21:32.803Z,86
2023-04-15T04:22:32.880Z,86
2023-04-15T04:23:32.794Z,86
2023-04-15T04:24:32.828Z,86
2023-04-15T04:25:32.792Z,85
2023-04-15T04:26:32.803Z,85
2023-04-15T04:27:32.824Z,85
2023-04-15T04:28:32.801Z,85
2023-04-15T04:29:32.802Z,85
2023-04-15T04:30:32.788Z,85
2023-04-15T04:31:32.827Z,85
2023-04-15T04:32:32.837Z,85
2023-04-15T04:33:32.785Z,85
2023-04-15T04:34:32.805Z,85
2023-04-15T04:35:32.805Z,85
2023-04-15T04:36:32.780Z,85
2023-04-15T04:37:32.765Z,85
2023-04-15T04:38:32.781Z,85
2023-04-15T04:39:32.842Z,85
2023-04-15T04:40:32.811Z,85
2023-04-15T04:41:32.784Z,85
2023-04-15T04:42:32.781Z,85
2023-04-15T04:43:32.848Z,85
2023-04-15T04:44:32.772Z,85
2023-04-15T04:45:32.866Z,85
2023-04-15T04:46:32.789Z,85
2023-04-15T04:47:32.854Z,85
2023-04-15T04:48:32.971Z,84
2023-04-15T04:49:32.777Z,84
2023-04-15T04:50:32.789Z,84
2023-04-15T04:51:32.786Z,84
2023-04-15T04:52:32.767Z,84
2023-04-15T04:53:32.804Z,84
2023-04-15T04:54:32.805Z,84
2023-04-15T04:55:32.814Z,84
2023-04-15T04:56:32.764Z,84
2023-04-15T04:57:32.779Z,84
2023-04-15T04:58:32.787Z,83
2023-04-15T04:59:32.797Z,82
2023-04-15T05:00:32.743Z,82
2023-04-15T05:01:32.810Z,81
2023-04-15T05:02:32.954Z,81
2023-04-15T05:03:32.970Z,81
2023-04-15T05:04:32.764Z,80
2023-04-15T05:05:32.810Z,80
2023-04-15T05:06:32.831Z,80
2023-04-15T05:07:32.803Z,80
2023-04-15T05:08:32.802Z,80
2023-04-15T05:09:32.799Z,80
2023-04-15T05:10:32.805Z,80
2023-04-15T05:11:32.815Z,80
2023-04-15T05:12:32.783Z,80
2023-04-15T05:13:32.794Z,81
2023-04-15T05:14:32.790Z,81
2023-04-15T05:15:32.824Z,81
2023-04-15T05:16:32.776Z,80
2023-04-15T05:17:32.805Z,80
2023-04-15T05:18:32.786Z,80
2023-04-15T05:19:32.813Z,80
2023-04-15T05:20:32.764Z,80
2023-04-15T05:21:32.793Z,80
2023-04-15T05:22:32.790Z,80
2023-04-15T05:23:32.820Z,80
2023-04-15T05:24:32.776Z,80
2023-04-15T05:25:32.769Z,79
2023-04-15T05:26:32.789Z,79
2023-04-15T05:27:32.792Z,79
2023-04-15T05:28:32.948Z,79
2023-04-15T05:29:32.927Z,79
2023-04-15T05:30:32.764Z,79
2023-04-15T05:31:32.841Z,79
2023-04-15T05:32:32.857Z,79
2023-04-15T05:33:32.826Z,79
2023-04-15T05:34:32.756Z,79
2023-04-15T05:35:32.771Z,79
2023-04-15T05:36:32.799Z,79
2023-04-15T05:37:32.796Z,79
2023-04-15T05:38:32.799Z,79
2023-04-15T05:39:32.792Z,78
2023-04-15T05:40:32.788Z,78
2023-04-15T05:41:32.804Z,78
2023-04-15T05:42:32.782Z,78
2023-04-15T05:43:32.801Z,77
2023-04-15T05:44:32.814Z,77
2023-04-15T05:45:32.796Z,77
2023-04-15T05:46:32.778Z,76
2023-04-15T05:47:32.819Z,76
2023-04-15T05:48:32.831Z,76
2023-04-15T05:49:32.778Z,76
2023-04-15T05:50:32.813Z,76
2023-04-15T05:51:32.774Z,76
2023-04-15T05:52:32.814Z,75
2023-04-15T05:53:32.785Z,76
2023-04-15T05:54:32.764Z,76
2023-04-15T05:55:32.772Z,77
2023-04-15T05:56:32.803Z,77
2023-04-15T05:57:32.783Z,75
2023-04-15T05:58:32.797Z,75
2023-04-15T05:59:32.770Z,75
2023-04-15T06:00:32.795Z,75
2023-04-15T06:01:32.794Z,74
2023-04-15T06:02:32.855Z,73
2023-04-15T06:03:32.953Z,73
2023-04-15T06:04:32.955Z,73
2023-04-15T06:05:32.792Z,72
2023-04-15T06:06:32.793Z,72
2023-04-15T06:07:32.788Z,72
2023-04-15T06:08:32.788Z,72
2023-04-15T06:09:32.796Z,73
2023-04-15T06:10:32.771Z,73
2023-04-15T06:11:32.817Z,74
2023-04-15T06:12:32.787Z,74
2023-04-15T06:13:32.787Z,74
2023-04-15T06:14:32.797Z,74
2023-04-15T06:15:32.771Z,75
2023-04-15T06:16:32.832Z,74
2023-04-15T06:17:32.804Z,74
2023-04-15T06:18:32.836Z,74
2023-04-15T06:19:32.793Z,74
2023-04-15T06:20:32.854Z,74
2023-04-15T06:21:32.777Z,73
2023-04-15T06:22:32.771Z,74
2023-04-15T06:23:32.752Z,74
2023-04-15T06:24:32.766Z,74
2023-04-15T06:25:32.791Z,73
2023-04-15T06:26:32.805Z,73
2023-04-15T06:27:32.815Z,73
2023-04-15T06:28:32.800Z,73
2023-04-15T06:29:32.774Z,73
2023-04-15T06:30:32.791Z,73
2023-04-15T06:31:32.842Z,73
2023-04-15T06:32:32.854Z,73
2023-04-15T06:33:32.768Z,73
2023-04-15T06:34:32.778Z,73
2023-04-15T06:35:32.811Z,73
2023-04-15T06:36:32.776Z,72
2023-04-15T06:37:32.775Z,73
2023-04-15T06:38:32.776Z,73
2023-04-15T06:39:32.780Z,74
2023-04-15T06:40:32.803Z,73
2023-04-15T06:41:32.800Z,73
2023-04-15T06:42:32.810Z,73
2023-04-15T06:43:32.817Z,74
2023-04-15T06:44:33.862Z,73
2023-04-15T06:45:32.825Z,73
2023-04-15T06:46:32.821Z,73
2023-04-15T06:47:32.817Z,72
2023-04-15T06:48:32.772Z,73
2023-04-15T06:49:32.752Z,73
2023-04-15T06:50:32.759Z,73
2023-04-15T06:51:32.777Z,73
2023-04-15T06:52:32.836Z,73
2023-04-15T06:53:32.870Z,73
2023-04-15T06:54:32.818Z,73
2023-04-15T06:55:32.796Z,72
2023-04-15T06:56:32.756Z,71
2023-04-15T06:57:34.898Z,71
2023-04-15T06:58:32.780Z,71
2023-04-15T06:59:32.814Z,71
2023-04-15T07:00:32.787Z,71
2023-04-15T07:01:32.786Z,71
2023-04-15T07:02:32.843Z,71
2023-04-15T07:03:33.072Z,71
2023-04-15T07:04:32.851Z,71
2023-04-15T07:05:32.769Z,71
2023-04-15T07:06:32.792Z,71
2023-04-15T07:07:32.783Z,70
2023-04-15T07:08:32.769Z,70
2023-04-15T07:09:32.750Z,71
2023-04-15T07:10:32.798Z,71
2023-04-15T07:11:32.802Z,71
2023-04-15T07:12:32.770Z,71
2023-04-15T07:13:32.778Z,70
2023-04-15T07:14:32.776Z,70
2023-04-15T07:15:32.793Z,70
2023-04-15T07:16:32.795Z,70
2023-04-15T07:17:32.866Z,70
2023-04-15T07:18:32.789Z,70
2023-04-15T07:19:32.834Z,70
2023-04-15T07:20:32.763Z,69
2023-04-15T07:21:32.838Z,70
2023-04-15T07:22:32.768Z,70
2023-04-15T07:23:32.795Z,69
2023-04-15T07:24:32.850Z,69
2023-04-15T07:25:32.803Z,69
2023-04-15T07:26:32.752Z,68
2023-04-15T07:27:32.754Z,68
2023-04-15T07:28:32.765Z,68
2023-04-15T07:29:32.753Z,67
2023-04-15T07:30:32.749Z,67
2023-04-15T07:31:32.858Z,67
2023-04-15T07:32:32.745Z,66
2023-04-15T07:33:32.770Z,66
2023-04-15T07:34:32.881Z,66
2023-04-15T07:35:32.788Z,67
2023-04-15T07:36:32.801Z,67
2023-04-15T07:37:32.809Z,67
2023-04-15T07:38:32.776Z,66
2023-04-15T07:39:32.795Z,67
2023-04-15T07:40:32.848Z,67
2023-04-15T07:41:32.761Z,67
2023-04-15T07:42:32.803Z,67
2023-04-15T07:43:32.759Z,66
2023-04-15T07:44:32.766Z,67
2023-04-15T07:45:32.759Z,66
2023-04-15T07:46:32.894Z,66
2023-04-15T07:47:32.824Z,65
2023-04-15T07:48:33.701Z,64
2023-04-15T07:49:32.804Z,64
2023-04-15T07:50:32.789Z,64
2023-04-15T07:51:32.756Z,64
2023-04-15T07:52:32.759Z,65
2023-04-15T07:53:32.787Z,65
2023-04-15T07:54:32.780Z,65
2023-04-15T07:55:32.766Z,64
2023-04-15T07:56:32.795Z,64
2023-04-15T07:57:32.818Z,65
2023-04-15T07:58:32.811Z,65
2023-04-15T07:59:32.778Z,65
2023-04-15T08:00:32.855Z,64
2023-04-15T08:01:32.760Z,63
2023-04-15T08:02:32.842Z,63
2023-04-15T08:03:32.824Z,63
2023-04-15T08:04:33.025Z,64
2023-04-15T08:05:32.771Z,63
2023-04-15T08:06:32.829Z,62
2023-04-15T08:07:32.776Z,62
2023-04-15T08:08:32.793Z,63
2023-04-15T08:09:32.769Z,64
2023-04-15T08:10:32.767Z,63
2023-04-15T08:11:32.769Z,63
2023-04-15T08:12:32.806Z,63
2023-04-15T08:13:32.774Z,63
2023-04-15T08:14:32.836Z,64
2023-04-15T08:15:32.806Z,65
2023-04-15T08:16:32.954Z,63
2023-04-15T08:17:32.817Z,63
2023-04-15T08:18:32.770Z,62
2023-04-15T08:19:32.752Z,62
2023-04-15T08:20:32.782Z,62
2023-04-15T08:21:32.775Z,61
2023-04-15T08:22:32.795Z,61
2023-04-15T08:23:32.760Z,61
2023-04-15T08:24:32.735Z,62
2023-04-15T08:25:32.761Z,63
2023-04-15T08:26:32.750Z,63
2023-04-15T08:27:32.792Z,63
2023-04-15T08:28:32.778Z,63
2023-04-15T08:29:32.760Z,64
2023-04-15T08:30:32.748Z,64
2023-04-15T08:31:32.808Z,63
2023-04-15T08:32:32.783Z,63
2023-04-15T08:33:32.778Z,64
2023-04-15T08:34:32.737Z,63
2023-04-15T08:35:32.865Z,62
2023-04-15T08:36:32.828Z,61
2023-04-15T08:37:32.794Z,62
2023-04-15T08:38:32.753Z,62
2023-04-15T08:39:32.765Z,62
2023-04-15T08:40:32.784Z,62
2023-04-15T08:41:32.774Z,62
2023-04-15T08:42:32.747Z,61
2023-04-15T08:43:32.801Z,62
2023-04-15T08:44:32.762Z,63
2023-04-15T08:45:32.777Z,61
2023-04-15T08:46:32.775Z,61
2023-04-15T08:47:32.826Z,60
2023-04-15T08:48:32.784Z,61
2023-04-15T08:49:32.776Z,60
2023-04-15T08:50:32.769Z,61
2023-04-15T08:51:32.784Z,61
2023-04-15T08:52:32.746Z,60
2023-04-15T08:53:32.811Z,60
2023-04-15T08:54:32.785Z,60
2023-04-15T08:55:32.854Z,60
2023-04-15T08:56:33.016Z,60
2023-04-15T08:57:32.784Z,61
2023-04-15T08:58:32.743Z,61
2023-04-15T08:59:32.777Z,62
2023-04-15T09:00:32.746Z,62
2023-04-15T09:01:32.876Z,61
2023-04-15T09:02:32.908Z,61
2023-04-15T09:03:32.978Z,61
2023-04-15T09:04:32.758Z,61
2023-04-15T09:05:32.769Z,61
2023-04-15T09:06:32.764Z,61
2023-04-15T09:07:32.793Z,60
2023-04-15T09:08:32.789Z,61
2023-04-15T09:09:32.771Z,60
2023-04-15T09:10:32.798Z,60
2023-04-15T09:11:32.767Z,61
2023-04-15T09:12:32.802Z,60
2023-04-15T09:13:32.844Z,60
2023-04-15T09:14:32.746Z,61
2023-04-15T09:15:32.768Z,61
2023-04-15T09:16:32.804Z,60
2023-04-15T09:17:32.784Z,61
2023-04-15T09:18:32.764Z,61
2023-04-15T09:19:32.792Z,60
2023-04-15T09:20:32.780Z,58
2023-04-15T09:21:32.888Z,58
2023-04-15T09:22:32.774Z,59
2023-04-15T09:23:32.818Z,59
2023-04-15T09:24:32.768Z,59
2023-04-15T09:25:34.950Z,60
2023-04-15T09:26:32.783Z,60
2023-04-15T09:27:32.762Z,59
2023-04-15T09:28:32.751Z,58
2023-04-15T09:29:32.771Z,58
2023-04-15T09:30:32.822Z,60
2023-04-15T09:31:32.739Z,59
2023-04-15T09:32:32.817Z,59
2023-04-15T09:33:32.803Z,59
2023-04-15T09:34:32.755Z,59
2023-04-15T09:35:32.789Z,58
2023-04-15T09:36:32.740Z,58
2023-04-15T09:37:32.742Z,59
2023-04-15T09:38:32.753Z,59
2023-04-15T09:39:32.751Z,58
2023-04-15T09:40:32.740Z,59
2023-04-15T09:41:32.778Z,59
2023-04-15T09:42:32.751Z,58
2023-04-15T09:43:32.763Z,58
2023-04-15T09:44:32.751Z,58
2023-04-15T09:45:32.756Z,58
2023-04-15T09:46:32.797Z,58
2023-04-15T09:47:32.826Z,59
2023-04-15T09:48:32.775Z,59
2023-04-15T09:49:32.794Z,58
2023-04-15T09:50:32.735Z,57
2023-04-15T09:51:32.745Z,58
2023-04-15T09:52:32.744Z,58
2023-04-15T09:53:32.787Z,59
2023-04-15T09:54:32.763Z,58
2023-04-15T09:55:32.762Z,58
2023-04-15T09:56:32.734Z,58
2023-04-15T09:57:32.783Z,58
2023-04-15T09:58:32.760Z,58
2023-04-15T09:59:32.784Z,58
2023-04-15T10:00:32.852Z,59
2023-04-15T10:01:32.793Z,60
2023-04-15T10:02:32.833Z,61
2023-04-15T10:03:32.881Z,59
2023-04-15T10:04:32.761Z,60
2023-04-15T10:05:32.767Z,60
2023-04-15T10:06:32.760Z,59
2023-04-15T10:07:32.765Z,58
2023-04-15T10:08:32.777Z,60
2023-04-15T10:09:32.770Z,59
2023-04-15T10:10:32.780Z,60
2023-04-15T10:11:32.744Z,60
2023-04-15T10:12:32.796Z,59
2023-04-15T10:13:32.793Z,59
2023-04-15T10:14:32.776Z,59
2023-04-15T10:15:32.804Z,60
2023-04-15T10:16:32.807Z,60
2023-04-15T10:17:32.825Z,60
2023-04-15T10:18:32.767Z,61
2023-04-15T10:19:32.750Z,60
2023-04-15T10:20:32.752Z,61
2023-04-15T10:21:32.815Z,61
2023-04-15T10:22:32.767Z,61
2023-04-15T10:23:32.752Z,60
2023-04-15T10:24:32.697Z,61
2023-04-15T10:25:32.756Z,60
2023-04-15T10:26:32.762Z,59
2023-04-15T10:27:32.766Z,60
2023-04-15T10:28:32.737Z,61
2023-04-15T10:29:32.729Z,61
2023-04-15T10:30:32.779Z,60
2023-04-15T10:31:32.845Z,60
2023-04-15T10:32:32.759Z,61
2023-04-15T10:33:32.740Z,61
2023-04-15T10:34:32.770Z,60
2023-04-15T10:35:32.767Z,61
2023-04-15T10:36:32.755Z,60
2023-04-15T10:37:32.738Z,61
2023-04-15T10:38:32.780Z,62
2023-04-15T10:39:32.771Z,62
2023-04-15T10:40:32.741Z,61
2023-04-15T10:41:32.758Z,60
2023-04-15T10:42:32.771Z,60
2023-04-15T10:43:32.809Z,60
2023-04-15T10:44:32.752Z,60
2023-04-15T10:45:32.788Z,59
2023-04-15T10:46:32.778Z,60
2023-04-15T10:47:32.807Z,60
2023-04-15T10:48:32.737Z,60
2023-04-15T10:49:32.751Z,60
2023-04-15T10:50:32.759Z,59
2023-04-15T10:51:32.761Z,61
2023-04-15T10:52:32.716Z,60
2023-04-15T10:53:32.753Z,60
2023-04-15T10:54:32.835Z,61
2023-04-15T10:55:32.847Z,60
2023-04-15T10:56:32.754Z,59
2023-04-15T10:57:32.762Z,60
2023-04-15T10:58:32.780Z,60
2023-04-15T10:59:32.759Z,59
2023-04-15T11:00:32.804Z,58
2023-04-15T11:01:32.827Z,58
2023-04-15T11:02:32.944Z,59
2023-04-15T11:03:32.944Z,59
2023-04-15T11:04:32.804Z,59
2023-04-15T11:05:32.778Z,59
2023-04-15T11:06:32.739Z,60
2023-04-15T11:07:32.777Z,58
2023-04-15T11:08:32.732Z,59
2023-04-15T11:09:32.737Z,58
2023-04-15T11:10:32.741Z,57
2023-04-15T11:11:32.759Z,57
2023-04-15T11:12:32.732Z,57
2023-04-15T11:13:32.741Z,56
2023-04-15T11:14:32.735Z,56
2023-04-15T11:15:32.756Z,56
2023-04-15T11:16:32.770Z,56
2023-04-15T11:17:32.784Z,56
2023-04-15T11:18:32.896Z,57
2023-04-15T11:19:32.744Z,57
2023-04-15T11:20:32.748Z,57
2023-04-15T11:21:32.762Z,58
2023-04-15T11:22:32.780Z,56
2023-04-15T11:23:32.769Z,55
2023-04-15T11:24:32.737Z,56
2023-04-15T11:25:32.791Z,57
2023-04-15T11:26:32.753Z,58
2023-04-15T11:27:32.757Z,57
2023-04-15T11:28:32.718Z,56
2023-04-15T11:29:32.749Z,56
2023-04-15T11:30:32.733Z,56
2023-04-15T11:31:32.773Z,57
2023-04-15T11:32:32.774Z,57
2023-04-15T11:33:32.757Z,57
2023-04-15T11:34:34.568Z,57
2023-04-15T11:35:32.762Z,57
2023-04-15T11:36:32.787Z,58
2023-04-15T11:37:32.734Z,59
2023-04-15T11:38:32.831Z,58
2023-04-15T11:39:32.790Z,58
2023-04-15T11:40:32.711Z,57
2023-04-15T11:41:32.806Z,58
2023-04-15T11:42:46.421Z,58
2023-04-15T11:43:32.804Z,58
2023-04-15T11:44:32.740Z,58
2023-04-15T11:45:32.789Z,58
2023-04-15T11:46:32.747Z,58
2023-04-15T11:47:32.739Z,58
2023-04-15T11:48:32.726Z,59
2023-04-15T11:49:32.761Z,57
2023-04-15T11:50:32.759Z,57
2023-04-15T11:51:32.739Z,58
2023-04-15T11:52:32.733Z,58
2023-04-15T11:53:32.753Z,58
2023-04-15T11:54:32.755Z,57
2023-04-15T11:55:32.764Z,57
2023-04-15T11:56:32.735Z,57
2023-04-15T11:57:32.757Z,57
2023-04-15T11:58:32.815Z,58
2023-04-15T11:59:42.531Z,57
2023-04-15T12:00:32.738Z,57
2023-04-15T12:01:32.759Z,57
2023-04-15T12:02:32.867Z,57
2023-04-15T12:03:32.959Z,58
2023-04-15T12:04:32.976Z,57
2023-04-15T12:05:32.761Z,57
2023-04-15T12:06:32.737Z,58
2023-04-15T12:07:32.744Z,58
2023-04-15T12:08:32.727Z,59
2023-04-15T12:09:32.787Z,58
2023-04-15T12:10:32.773Z,56
2023-04-15T12:11:32.757Z,56
2023-04-15T12:12:32.752Z,56
2023-04-15T12:13:32.734Z,55
2023-04-15T12:14:32.790Z,56
2023-04-15T12:15:32.784Z,57
2023-04-15T12:16:34.133Z,57
2023-04-15T12:17:50.915Z,58
2023-04-15T12:18:32.773Z,58
2023-04-15T12:19:32.745Z,58
2023-04-15T12:20:32.741Z,58
2023-04-15T12:21:32.764Z,58
2023-04-15T12:22:32.743Z,58
2023-04-15T12:23:32.783Z,57
2023-04-15T12:24:32.684Z,57
2023-04-15T12:25:32.731Z,57
2023-04-15T12:26:32.744Z,57
2023-04-15T12:27:32.752Z,57
2023-04-15T12:28:32.725Z,58
2023-04-15T12:29:32.737Z,58
2023-04-15T12:30:32.724Z,57
2023-04-15T12:31:32.794Z,57
2023-04-15T12:32:32.766Z,58
2023-04-15T12:33:32.712Z,57
2023-04-15T12:34:32.739Z,57
2023-04-15T12:35:32.778Z,59
2023-04-15T12:36:32.737Z,57
2023-04-15T12:37:32.716Z,56
2023-04-15T12:38:32.742Z,56
2023-04-15T12:39:32.760Z,56
2023-04-15T12:40:32.728Z,56
2023-04-15T12:41:32.743Z,56
2023-04-15T12:42:32.752Z,57
2023-04-15T12:43:32.750Z,57
2023-04-15T12:44:32.717Z,56
2023-04-15T12:45:32.736Z,56
2023-04-15T12:46:32.878Z,56
2023-04-15T12:47:32.869Z,56
2023-04-15T12:48:32.735Z,56
2023-04-15T12:49:32.836Z,57
2023-04-15T12:50:32.737Z,56
2023-04-15T12:51:32.785Z,55
2023-04-15T12:52:32.746Z,55
2023-04-15T12:53:32.749Z,53
2023-04-15T12:54:32.734Z,53
2023-04-15T12:55:32.726Z,53
2023-04-15T12:56:32.728Z,54
2023-04-15T12:57:32.700Z,55
2023-04-15T12:58:32.725Z,55
2023-04-15T12:59:32.738Z,56
2023-04-15T13:00:32.740Z,56
2023-04-15T13:01:32.751Z,57
2023-04-15T13:02:32.958Z,56
2023-04-15T13:03:32.939Z,55
2023-04-15T13:04:32.864Z,55
2023-04-15T13:05:32.787Z,55
2023-04-15T13:06:32.747Z,54
2023-04-15T13:07:33.661Z,54
2023-04-15T13:08:38.571Z,54
2023-04-15T13:09:40.675Z,54
2023-04-15T13:10:44.701Z,55
2023-04-15T13:11:48.688Z,57
2023-04-15T13:12:52.666Z,56
2023-04-15T13:13:56.670Z,56
2023-04-15T13:15:00.680Z,56
2023-04-15T13:16:04.751Z,56
2023-04-15T13:17:08.687Z,56
2023-04-15T13:18:12.708Z,56
2023-04-15T13:19:16.690Z,56
2023-04-15T13:20:20.688Z,56
2023-04-15T13:21:24.688Z,56
2023-04-15T13:22:28.684Z,56
2023-04-15T13:23:32.741Z,55
2023-04-15T13:24:32.730Z,54
2023-04-15T13:25:32.761Z,55
2023-04-15T13:26:32.766Z,56
2023-04-15T13:27:32.652Z,55
2023-04-15T13:28:32.717Z,56
2023-04-15T13:29:32.772Z,55
2023-04-15T13:30:32.717Z,56
2023-04-15T13:31:32.778Z,54
2023-04-15T13:32:32.788Z,55
2023-04-15T13:33:32.734Z,55
2023-04-15T13:34:32.739Z,55
2023-04-15T13:35:32.658Z,54
2023-04-15T13:36:32.710Z,55
2023-04-15T13:37:32.760Z,53
2023-04-15T13:38:32.768Z,54
2023-04-15T13:39:32.621Z,54
2023-04-15T13:40:32.751Z,54
2023-04-15T13:41:32.748Z,56
2023-04-15T13:42:32.744Z,55
2023-04-15T13:43:32.645Z,56
2023-04-15T13:44:32.712Z,55
2023-04-15T13:45:32.765Z,54
2023-04-15T13:46:32.729Z,54
2023-04-15T13:47:32.669Z,55
2023-04-15T13:48:32.757Z,55
2023-04-15T13:49:32.802Z,56
2023-04-15T13:50:32.769Z,56
2023-04-15T13:51:32.637Z,56
2023-04-15T13:52:32.722Z,55
2023-04-15T13:53:37.851Z,56
2023-04-15T13:54:37.865Z,56
2023-04-15T13:55:32.656Z,55
2023-04-15T13:56:32.963Z,56
2023-04-15T13:57:32.730Z,57
2023-04-15T13:58:32.761Z,57
2023-04-15T13:59:32.617Z,56
2023-04-15T14:00:32.726Z,57
2023-04-15T14:01:32.767Z,58
2023-04-15T14:02:32.853Z,57
2023-04-15T14:03:32.916Z,57
2023-04-15T14:04:32.778Z,56
2023-04-15T14:05:32.741Z,56
2023-04-15T14:06:32.730Z,55
2023-04-15T14:07:32.643Z,55
2023-04-15T14:08:32.750Z,55
2023-04-15T14:10:32.734Z,55
2023-04-15T14:11:32.597Z,54
2023-04-15T14:12:32.702Z,55
2023-04-15T14:13:32.729Z,54
2023-04-15T14:14:32.759Z,55
2023-04-15T14:15:32.604Z,56
2023-04-15T14:16:32.786Z,56
2023-04-15T14:17:32.770Z,56